Time;durP1;ratioP1;P1;durP2;ratioP2;P2;SDS_P1;SDS_P2;PMS_P1;PMS_P2;Temp;Humidity;BMP_temperature;BMP_pressure;BME280_temperature;BME280_humidity;BME280_pressure;Samples;Min_cycle;Max_cycle;Signal;HPM_P1;HPM_P2
2022/05/13 00:01:58;;;;;;;6.40;2.20;;;16.30;61.20;;;;;;5056820;28;20481;-71
2022/05/13 00:04:25;;;;;;;4.80;2.10;;;16.20;61.40;;;;;;5057096;28;20457;-71
2022/05/13 00:06:51;;;;;;;2.47;2.10;;;16.20;61.60;;;;;;5056821;28;20481;-71
2022/05/13 00:09:18;;;;;;;4.83;1.97;;;16.10;61.70;;;;;;5056666;28;20448;-72
2022/05/13 00:11:45;;;;;;;7.47;2.20;;;16.10;61.80;;;;;;5056454;28;20466;-71
2022/05/13 00:14:12;;;;;;;5.47;2.30;;;16.10;61.70;;;;;;5056003;28;20442;-71
2022/05/13 00:16:38;;;;;;;4.70;2.27;;;16.10;61.90;;;;;;5055103;28;20453;-71
2022/05/13 00:19:10;;;;;;;4.47;2.20;;;16.10;61.90;;;;;;5054798;28;20862;-71
2022/05/13 00:21:37;;;;;;;3.13;1.83;;;16.10;61.90;;;;;;5054952;28;20477;-71
2022/05/13 00:24:05;;;;;;;4.40;1.90;;;16.10;61.90;;;;;;5054814;28;20825;-71
2022/05/13 00:26:32;;;;;;;3.60;1.90;;;16.10;62.10;;;;;;5054680;28;20481;-71
2022/05/13 00:28:59;;;;;;;6.33;2.00;;;16.00;62.20;;;;;;5054906;28;20464;-71
2022/05/13 00:31:25;;;;;;;4.90;2.50;;;16.00;62.40;;;;;;5055261;28;20474;-71
2022/05/13 00:33:53;;;;;;;5.73;2.00;;;16.00;62.80;;;;;;5054796;28;20815;-71
2022/05/13 00:36:21;;;;;;;5.50;2.47;;;16.00;62.80;;;;;;5055075;28;20839;-71
2022/05/13 00:38:49;;;;;;;4.93;1.73;;;15.90;62.70;;;;;;5055005;28;20449;-71
2022/05/13 00:41:18;;;;;;;4.63;1.90;;;15.90;63.40;;;;;;5054932;28;20886;-71
2022/05/13 00:43:49;;;;;;;5.87;1.90;;;15.90;63.40;;;;;;5054556;28;20965;-71
2022/05/13 00:46:16;;;;;;;5.13;1.83;;;15.80;63.40;;;;;;5054337;28;20464;-71
2022/05/13 00:48:44;;;;;;;6.80;2.40;;;15.80;63.30;;;;;;5054843;28;20453;-71
2022/05/13 00:51:14;;;;;;;7.30;2.03;;;15.80;63.40;;;;;;5054336;28;20478;-71
2022/05/13 00:53:42;;;;;;;5.23;2.10;;;15.90;63.50;;;;;;5054688;28;20458;-71
2022/05/13 00:56:09;;;;;;;4.67;2.00;;;15.80;63.20;;;;;;5058752;28;20804;-71
2022/05/13 00:58:39;;;;;;;4.77;1.60;;;15.80;63.20;;;;;;5058931;28;20454;-71
2022/05/13 01:01:06;;;;;;;3.73;2.07;;;15.80;63.30;;;;;;5058606;28;20535;-71
2022/05/13 01:03:34;;;;;;;6.33;2.10;;;15.70;63.40;;;;;;5058600;28;20989;-71
2022/05/13 01:06:03;;;;;;;3.33;1.50;;;15.80;63.60;;;;;;5058929;28;20445;-71
2022/05/13 01:08:32;;;;;;;3.97;2.00;;;15.70;63.60;;;;;;5058478;28;20496;-71
2022/05/13 01:11:03;;;;;;;6.63;1.80;;;15.70;63.70;;;;;;5058508;28;20465;-71
2022/05/13 01:13:32;;;;;;;5.00;1.70;;;15.60;63.80;;;;;;5058388;28;20437;-71
2022/05/13 01:15:59;;;;;;;9.63;1.87;;;15.50;63.90;;;;;;5058501;28;20446;-71
2022/05/13 01:18:27;;;;;;;9.23;2.40;;;15.50;64.20;;;;;;5058691;28;20468;-71
2022/05/13 01:20:55;;;;;;;3.90;1.80;;;15.50;64.20;;;;;;5058478;28;20452;-71
2022/05/13 01:23:26;;;;;;;4.77;1.87;;;15.50;63.90;;;;;;5058447;28;20465;-71
2022/05/13 01:25:55;;;;;;;4.53;1.80;;;15.40;64.10;;;;;;5058508;28;20521;-71
2022/05/13 01:28:24;;;;;;;5.10;2.40;;;15.30;64.00;;;;;;5058526;28;20572;-71
2022/05/13 01:30:54;;;;;;;8.50;2.13;;;15.20;63.90;;;;;;5058015;28;20461;-71
2022/05/13 01:33:22;;;;;;;10.30;2.33;;;15.10;64.20;;;;;;5058074;28;20525;-71
2022/05/13 01:35:51;;;;;;;9.43;2.80;;;15.10;64.30;;;;;;5057664;28;20971;-71
2022/05/13 01:38:20;;;;;;;9.00;2.10;;;15.10;64.60;;;;;;5057889;28;20441;-71
2022/05/13 01:40:50;;;;;;;13.43;2.80;;;15.00;64.60;;;;;;5057969;28;20445;-71
2022/05/13 01:43:16;;;;;;;11.63;3.10;;;15.00;64.70;;;;;;5057209;28;20544;-71
2022/05/13 01:45:44;;;;;;;8.53;2.50;;;15.00;64.90;;;;;;5057664;28;20434;-71
2022/05/13 01:48:11;;;;;;;13.40;2.70;;;14.90;65.10;;;;;;5057279;28;20491;-71
2022/05/13 01:50:39;;;;;;;11.50;2.67;;;14.90;65.40;;;;;;5057202;28;20456;-71
2022/05/13 01:53:06;;;;;;;14.00;3.07;;;14.90;66.50;;;;;;5057576;28;20812;-71
2022/05/13 01:55:33;;;;;;;16.17;3.73;;;14.90;66.10;;;;;;5057348;28;20453;-71
2022/05/13 01:58:02;;;;;;;17.70;3.87;;;14.90;66.50;;;;;;5057360;28;20453;-71
2022/05/13 02:00:29;;;;;;;15.93;4.20;;;15.00;67.50;;;;;;5057222;28;20445;-71
2022/05/13 02:05:40;;;;;;;12.93;4.23;;;15.10;67.60;;;;;;5056447;28;20456;-71
2022/05/13 02:08:07;;;;;;;11.13;3.63;;;15.10;67.80;;;;;;5056862;28;20495;-72
2022/05/13 02:10:34;;;;;;;8.90;3.37;;;15.10;67.90;;;;;;5056893;28;20453;-72
2022/05/13 02:13:03;;;;;;;8.10;3.30;;;15.00;67.50;;;;;;5057178;28;20480;-71
2022/05/13 02:15:30;;;;;;;7.13;3.60;;;15.00;67.90;;;;;;5057224;28;20453;-71
2022/05/13 02:17:57;;;;;;;4.80;2.43;;;15.00;67.70;;;;;;5057044;28;20441;-71
2022/05/13 02:20:23;;;;;;;10.30;3.43;;;15.00;68.00;;;;;;5056885;28;20461;-71
2022/05/13 02:22:50;;;;;;;9.53;3.13;;;14.90;67.60;;;;;;5056986;28;20865;-71
2022/05/13 02:25:17;;;;;;;5.40;2.37;;;14.90;67.50;;;;;;5056754;28;20468;-71
2022/05/13 02:27:44;;;;;;;14.20;3.70;;;14.80;67.20;;;;;;5056578;28;20538;-71
2022/05/13 02:30:13;;;;;;;11.67;2.87;;;14.80;67.50;;;;;;5056761;28;20462;-71
2022/05/13 02:32:40;;;;;;;5.73;2.13;;;14.70;67.80;;;;;;5057102;28;20473;-71
2022/05/13 02:35:08;;;;;;;10.73;3.57;;;14.60;68.00;;;;;;5056632;28;20476;-71
2022/05/13 02:37:36;;;;;;;8.00;2.30;;;14.50;68.00;;;;;;5056308;28;20445;-71
2022/05/13 02:40:03;;;;;;;5.33;2.40;;;14.50;68.20;;;;;;5056632;28;20453;-71
2022/05/13 02:42:30;;;;;;;5.50;2.13;;;14.50;68.10;;;;;;5056772;28;20480;-71
2022/05/13 02:44:57;;;;;;;6.57;2.27;;;14.50;68.30;;;;;;5056787;28;20953;-71
2022/05/13 02:47:25;;;;;;;6.87;1.80;;;14.50;67.20;;;;;;5056242;28;20493;-71
2022/05/13 02:50:17;;;;;;;5.03;1.80;;;14.40;66.90;;;;;;5057432;28;20460;-71
2022/05/13 02:52:42;;;;;;;4.40;1.77;;;14.30;67.50;;;;;;5055992;28;20492;-71
2022/05/13 02:55:09;;;;;;;4.20;1.90;;;14.20;67.70;;;;;;5056489;28;20817;-71
2022/05/13 02:57:36;;;;;;;6.30;2.30;;;14.20;68.50;;;;;;5056774;28;20450;-71
2022/05/13 03:00:04;;;;;;;2.63;1.43;;;14.10;69.20;;;;;;5056322;28;20449;-71
2022/05/13 03:02:33;;;;;;;4.77;2.30;;;14.10;68.60;;;;;;5055878;28;20477;-71
2022/05/13 03:04:59;;;;;;;4.13;1.70;;;14.10;68.90;;;;;;5056895;28;20434;-71
2022/05/13 03:07:27;;;;;;;6.13;1.63;;;14.00;68.60;;;;;;5055948;28;20508;-71
2022/05/13 03:09:53;;;;;;;5.47;1.50;;;13.80;69.10;;;;;;5056629;28;20453;-71
2022/05/13 03:12:20;;;;;;;3.87;1.60;;;13.70;69.30;;;;;;5056551;28;20851;-71
2022/05/13 03:14:47;;;;;;;7.43;1.77;;;13.60;70.30;;;;;;5055667;28;20945;-72
2022/05/13 03:17:14;;;;;;;3.70;1.50;;;13.50;71.00;;;;;;5056316;28;20446;-71
2022/05/13 03:19:42;;;;;;;10.57;1.97;;;13.40;71.60;;;;;;5056512;28;20449;-71
2022/05/13 03:22:09;;;;;;;6.57;2.00;;;13.30;71.80;;;;;;5056096;28;20485;-71
2022/05/13 03:24:36;;;;;;;5.60;1.83;;;13.30;72.30;;;;;;5056404;28;20461;-71
2022/05/13 03:27:04;;;;;;;6.60;1.67;;;13.20;72.30;;;;;;5055568;28;20837;-71
2022/05/13 03:29:31;;;;;;;2.70;1.30;;;13.20;73.20;;;;;;5056243;28;20508;-71
2022/05/13 03:31:58;;;;;;;4.90;1.70;;;13.20;73.40;;;;;;5055796;28;20996;-71
2022/05/13 03:34:26;;;;;;;5.77;1.93;;;13.20;73.20;;;;;;5055749;28;20453;-71
2022/05/13 03:36:55;;;;;;;4.77;2.00;;;13.10;73.30;;;;;;5056042;28;20465;-71
2022/05/13 03:39:22;;;;;;;5.50;1.47;;;13.20;73.30;;;;;;5055755;28;20877;-71
2022/05/13 03:41:48;;;;;;;5.67;1.60;;;13.20;73.50;;;;;;5055924;28;20473;-71
2022/05/13 03:44:15;;;;;;;6.33;1.97;;;13.00;74.00;;;;;;5055468;28;20465;-71
2022/05/13 03:46:43;;;;;;;3.97;1.73;;;13.00;74.70;;;;;;5055757;28;20457;-71
2022/05/13 03:49:10;;;;;;;6.67;2.50;;;13.00;74.90;;;;;;5055431;28;20996;-71
2022/05/13 03:51:37;;;;;;;3.93;2.00;;;13.00;75.40;;;;;;5055555;28;20874;-71
2022/05/13 03:54:06;;;;;;;3.50;1.57;;;12.90;75.20;;;;;;5054931;28;20987;-71
2022/05/13 03:56:33;;;;;;;5.03;1.37;;;12.90;76.30;;;;;;5055039;28;20450;-71
2022/05/13 03:59:00;;;;;;;5.87;1.93;;;12.80;76.50;;;;;;5054932;28;20458;-71
2022/05/13 04:01:26;;;;;;;6.70;1.83;;;12.80;77.50;;;;;;5055058;28;20477;-71
2022/05/13 04:03:53;;;;;;;5.20;2.20;;;12.90;77.20;;;;;;5054620;28;20437;-71
2022/05/13 04:09:07;;;;;;;3.77;1.50;;;12.90;77.50;;;;;;5054917;28;20460;-71
2022/05/13 04:11:37;;;;;;;6.10;2.10;;;12.90;77.10;;;;;;5054881;28;20466;-71
2022/05/13 04:16:51;;;;;;;7.30;1.90;;;12.90;76.90;;;;;;5054855;28;20442;-71
2022/05/13 04:19:19;;;;;;;4.43;2.20;;;12.90;77.40;;;;;;5054822;28;20484;-71
2022/05/13 04:21:46;;;;;;;6.90;1.57;;;12.80;77.70;;;;;;5054581;28;20472;-71
2022/05/13 04:24:17;;;;;;;5.23;1.70;;;12.90;77.80;;;;;;5054852;28;20576;-71
2022/05/13 04:26:44;;;;;;;8.20;2.33;;;12.80;78.00;;;;;;5055242;28;20433;-71
2022/05/13 04:29:11;;;;;;;10.60;2.97;;;12.90;78.70;;;;;;5054423;28;20485;-71
2022/05/13 04:31:41;;;;;;;7.23;3.97;;;12.90;78.90;;;;;;5054693;28;21018;-71
2022/05/13 04:34:09;;;;;;;4.97;1.70;;;13.00;79.20;;;;;;5055027;28;20437;-71
2022/05/13 04:36:37;;;;;;;5.53;2.00;;;13.00;79.00;;;;;;5054727;28;20541;-70
2022/05/13 04:39:04;;;;;;;9.10;2.30;;;13.00;78.70;;;;;;5055226;28;20438;-71
2022/05/13 04:44:20;;;;;;;6.30;2.17;;;13.00;79.80;;;;;;5054963;28;20468;-71
2022/05/13 04:46:47;;;;;;;5.87;2.63;;;13.00;80.00;;;;;;5055255;28;20922;-71
2022/05/13 04:49:13;;;;;;;7.77;2.13;;;13.00;79.80;;;;;;5054648;28;20486;-70
2022/05/13 04:51:40;;;;;;;5.93;1.77;;;13.00;79.60;;;;;;5053777;28;20473;-70
2022/05/13 04:54:08;;;;;;;9.57;2.17;;;13.00;79.90;;;;;;5054890;28;20453;-71
2022/05/13 04:56:39;;;;;;;5.00;1.93;;;13.10;79.90;;;;;;5054952;28;20465;-71
2022/05/13 04:59:06;;;;;;;13.73;2.50;;;13.10;79.70;;;;;;5055463;28;20438;-71
2022/05/13 05:01:33;;;;;;;8.13;2.43;;;13.10;79.80;;;;;;5055212;28;20477;-71
2022/05/13 05:04:00;;;;;;;16.00;2.97;;;13.10;79.90;;;;;;5054599;28;20456;-71
2022/05/13 05:06:27;;;;;;;11.43;2.40;;;13.10;80.00;;;;;;5060241;28;20461;-70
2022/05/13 05:08:56;;;;;;;7.03;2.33;;;13.20;79.80;;;;;;5057529;28;20493;-71
2022/05/13 05:11:23;;;;;;;8.73;2.20;;;13.40;78.30;;;;;;5053161;28;21035;-71
2022/05/13 05:13:52;;;;;;;7.30;1.77;;;13.80;76.50;;;;;;5053232;28;20437;-71
2022/05/13 05:16:22;;;;;;;5.67;2.03;;;14.20;74.70;;;;;;5053181;28;20534;-71
2022/05/13 05:18:49;;;;;;;5.90;1.77;;;14.50;73.10;;;;;;5053096;28;20437;-72
2022/05/13 05:21:16;;;;;;;9.93;2.20;;;14.80;71.30;;;;;;5053227;28;20466;-71
2022/05/13 05:23:45;;;;;;;12.47;2.97;;;15.10;70.20;;;;;;5053335;28;20450;-71
2022/05/13 05:26:12;;;;;;;5.17;2.43;;;15.40;69.10;;;;;;5053155;28;20461;-71
2022/05/13 05:28:40;;;;;;;7.27;2.40;;;15.60;68.00;;;;;;5053833;28;20496;-71
2022/05/13 05:31:11;;;;;;;6.43;3.10;;;15.70;67.00;;;;;;5054484;28;20473;-71
2022/05/13 05:33:38;;;;;;;5.03;2.10;;;15.90;66.20;;;;;;5053929;28;20438;-71
2022/05/13 05:36:06;;;;;;;5.17;2.60;;;16.00;65.20;;;;;;5053672;28;20879;-71
2022/05/13 05:38:33;;;;;;;7.00;2.13;;;16.10;64.20;;;;;;5053985;28;20430;-71
2022/05/13 05:41:00;;;;;;;4.90;2.10;;;16.20;64.20;;;;;;5054657;28;20481;-72
2022/05/13 05:43:28;;;;;;;8.40;2.13;;;16.20;63.70;;;;;;5057943;28;20461;-72
2022/05/13 05:45:55;;;;;;;7.53;2.43;;;16.20;63.20;;;;;;5058179;28;20803;-72
2022/05/13 05:48:23;;;;;;;6.83;2.43;;;16.30;63.00;;;;;;5058343;28;20481;-73
2022/05/13 05:50:51;;;;;;;7.67;3.07;;;16.30;62.70;;;;;;5058143;28;20452;-73
2022/05/13 05:57:13;;;;;;;7.53;2.30;;;16.20;64.30;;;;;;5059489;28;20437;-72
2022/05/13 05:58:52;;;;;;;9.77;2.23;;;15.40;67.50;;;;;;5059727;28;20448;-72
2022/05/13 06:01:19;;;;;;;7.80;3.13;;;15.00;69.50;;;;;;5060176;28;20473;-72
2022/05/13 06:03:48;;;;;;;6.00;2.97;;;14.50;71.50;;;;;;5059610;28;20434;-73
2022/05/13 06:06:14;;;;;;;8.03;2.73;;;14.40;74.10;;;;;;5059437;28;20458;-73
2022/05/13 06:08:42;;;;;;;5.57;2.27;;;14.30;75.80;;;;;;5058537;28;21026;-71
2022/05/13 06:11:10;;;;;;;8.60;2.33;;;14.20;75.00;;;;;;5056401;28;20473;-71
2022/05/13 06:13:37;;;;;;;6.50;2.67;;;14.20;76.70;;;;;;5056438;28;20493;-71
2022/05/13 06:16:07;;;;;;;5.90;3.17;;;14.20;77.20;;;;;;5056125;28;20441;-72
2022/05/13 06:18:35;;;;;;;4.73;2.10;;;14.20;76.50;;;;;;5055882;28;20440;-71
2022/05/13 06:21:03;;;;;;;10.63;2.57;;;14.30;76.20;;;;;;5055695;28;20473;-71
2022/05/13 06:23:30;;;;;;;8.30;2.80;;;14.30;76.00;;;;;;5055880;28;20463;-71
2022/05/13 06:25:57;;;;;;;7.63;2.20;;;14.30;76.40;;;;;;5055833;28;20803;-72
2022/05/13 06:28:24;;;;;;;6.83;3.13;;;14.40;76.40;;;;;;5055778;28;20489;-77
2022/05/13 06:30:51;;;;;;;4.33;2.43;;;14.40;76.30;;;;;;5055421;28;20544;-71
2022/05/13 06:33:18;;;;;;;6.17;2.60;;;14.50;75.80;;;;;;5055797;28;20456;-71
2022/05/13 06:35:44;;;;;;;8.77;3.23;;;14.50;76.10;;;;;;5055579;28;20541;-72
2022/05/13 06:38:20;;;;;;;6.17;2.40;;;14.60;75.60;;;;;;5055807;28;20448;-71
2022/05/13 06:40:47;;;;;;;9.93;2.80;;;14.70;75.70;;;;;;5055372;28;20437;-71
2022/05/13 06:43:14;;;;;;;7.30;1.97;;;14.80;75.20;;;;;;5055309;28;20488;-71
2022/05/13 06:45:41;;;;;;;13.00;2.70;;;14.90;74.40;;;;;;5055196;28;20430;-71
2022/05/13 06:48:09;;;;;;;8.00;2.33;;;15.00;74.50;;;;;;5055566;28;20533;-71
2022/05/13 06:50:37;;;;;;;5.17;2.43;;;15.00;73.50;;;;;;5055391;28;20433;-70
2022/05/13 06:53:04;;;;;;;5.80;2.90;;;15.10;73.10;;;;;;5054814;28;20453;-71
2022/05/13 06:55:32;;;;;;;11.37;2.50;;;15.10;72.40;;;;;;5055463;28;20441;-71
2022/05/13 06:57:59;;;;;;;9.40;2.73;;;15.10;73.00;;;;;;5055331;28;20445;-70
2022/05/13 07:00:26;;;;;;;7.40;2.53;;;15.20;74.20;;;;;;5055255;28;20434;-71
2022/05/13 07:02:53;;;;;;;8.10;2.60;;;15.30;72.40;;;;;;5054947;28;20470;-71
2022/05/13 07:05:21;;;;;;;7.37;3.70;;;15.50;73.80;;;;;;5054754;28;20458;-71
2022/05/13 07:07:48;;;;;;;7.60;2.50;;;15.60;71.60;;;;;;5055073;28;20464;-71
2022/05/13 07:10:15;;;;;;;9.10;2.07;;;15.70;71.20;;;;;;5054803;28;20481;-71
2022/05/13 07:12:44;;;;;;;7.47;3.47;;;15.90;70.90;;;;;;5054837;28;20877;-71
2022/05/13 07:15:13;;;;;;;9.70;2.53;;;16.00;70.00;;;;;;5054775;28;20828;-70
2022/05/13 07:17:40;;;;;;;4.93;1.90;;;16.20;69.70;;;;;;5054803;28;20453;-71
2022/05/13 07:20:09;;;;;;;6.67;1.90;;;16.30;67.70;;;;;;5054957;28;20446;-70
2022/05/13 07:22:36;;;;;;;7.17;2.70;;;16.40;68.40;;;;;;5054741;28;20527;-70
2022/05/13 07:25:04;;;;;;;10.83;2.50;;;16.40;65.80;;;;;;5054405;28;20984;-70
2022/05/13 07:27:31;;;;;;;4.93;2.00;;;16.30;67.20;;;;;;5054996;28;20457;-70
2022/05/13 07:29:59;;;;;;;11.23;2.13;;;16.30;68.40;;;;;;5054982;28;20481;-71
2022/05/13 07:32:26;;;;;;;6.13;2.30;;;16.40;69.90;;;;;;5054487;28;20474;-71
2022/05/13 07:34:53;;;;;;;10.03;3.13;;;16.40;68.20;;;;;;5054691;28;20457;-71
2022/05/13 07:37:20;;;;;;;8.10;3.60;;;16.60;69.20;;;;;;5054594;28;20771;-71
2022/05/13 07:42:31;;;;;;;5.73;2.50;;;16.80;66.70;;;;;;5054250;28;20859;-71
2022/05/13 07:44:59;;;;;;;5.50;2.27;;;16.90;66.90;;;;;;5054137;28;20835;-71
2022/05/13 07:47:26;;;;;;;5.13;2.20;;;16.90;66.10;;;;;;5054211;28;20441;-71
2022/05/13 07:49:53;;;;;;;11.63;2.73;;;16.90;65.40;;;;;;5054148;28;20513;-71
2022/05/13 07:52:20;;;;;;;7.20;2.00;;;16.90;66.10;;;;;;5054079;28;20648;-71
2022/05/13 07:54:46;;;;;;;7.00;2.37;;;16.80;66.60;;;;;;5053885;28;20809;-71
2022/05/13 07:57:13;;;;;;;6.53;2.10;;;16.90;67.80;;;;;;5054340;28;20445;-71
2022/05/13 08:02:22;;;;;;;7.07;3.00;;;16.90;66.50;;;;;;5053322;28;20507;-72
2022/05/13 08:04:49;;;;;;;9.23;3.80;;;16.90;66.10;;;;;;5053242;28;20452;-71
2022/05/13 08:07:16;;;;;;;10.17;2.50;;;16.90;68.00;;;;;;5053956;28;20879;-70
2022/05/13 08:09:43;;;;;;;8.03;3.43;;;16.90;67.40;;;;;;5053730;28;20497;-70
2022/05/13 08:12:10;;;;;;;9.10;3.07;;;17.10;67.80;;;;;;5053432;28;20472;-70
2022/05/13 08:14:38;;;;;;;7.83;2.77;;;17.20;66.10;;;;;;5053607;28;20457;-70
2022/05/13 08:17:06;;;;;;;10.13;2.70;;;17.20;67.50;;;;;;5053440;28;20457;-70
2022/05/13 08:19:34;;;;;;;7.80;2.90;;;17.40;68.00;;;;;;5053815;28;20499;-70
2022/05/13 08:22:01;;;;;;;7.53;2.53;;;17.50;64.50;;;;;;5053681;28;20582;-70
2022/05/13 08:24:28;;;;;;;6.70;2.67;;;17.50;64.90;;;;;;5054164;28;20457;-70
2022/05/13 08:26:55;;;;;;;8.47;2.87;;;17.50;65.10;;;;;;5053461;28;20995;-70
2022/05/13 08:29:22;;;;;;;4.53;2.50;;;17.50;65.00;;;;;;5053577;28;20469;-71
2022/05/13 08:31:50;;;;;;;9.70;3.10;;;17.60;65.30;;;;;;5053424;28;20853;-71
2022/05/13 08:34:17;;;;;;;5.00;2.20;;;17.70;65.10;;;;;;5053872;28;20445;-71
2022/05/13 08:36:45;;;;;;;10.93;3.07;;;17.80;63.80;;;;;;5053684;28;20544;-71
2022/05/13 08:39:12;;;;;;;4.80;2.10;;;17.80;65.60;;;;;;5053709;28;20430;-71
2022/05/13 08:42:01;;;;;;;7.00;2.30;;;17.80;64.40;;;;;;5053178;28;20988;-71
2022/05/13 08:44:28;;;;;;;6.10;2.63;;;17.90;66.50;;;;;;5050916;28;20481;-71
2022/05/13 08:46:58;;;;;;;7.73;2.63;;;18.00;62.60;;;;;;5053609;28;20461;-71
2022/05/13 08:49:42;;;;;;;6.83;3.30;;;18.00;62.00;;;;;;5053408;28;20473;-71
2022/05/13 08:55:06;;;;;;;8.50;3.43;;;18.20;63.70;;;;;;5053385;28;20417;-70
2022/05/13 08:57:39;;;;;;;4.57;2.60;;;18.20;62.90;;;;;;5053592;28;20450;-71
2022/05/13 09:00:11;;;;;;;8.90;3.00;;;18.40;61.50;;;;;;5053612;28;20430;-71
2022/05/13 09:02:41;;;;;;;6.23;1.93;;;18.50;62.70;;;;;;5053283;28;20477;-71
2022/05/13 09:05:16;;;;;;;7.20;2.03;;;18.60;62.40;;;;;;5053474;28;20445;-71
2022/05/13 09:07:45;;;;;;;5.80;2.47;;;18.60;59.10;;;;;;5053209;28;20432;-71
2022/05/13 09:10:12;;;;;;;4.57;2.10;;;18.60;59.90;;;;;;5052835;28;20539;-71
2022/05/13 09:12:45;;;;;;;5.80;2.80;;;18.70;58.90;;;;;;5053168;28;20478;-71
2022/05/13 09:15:18;;;;;;;5.60;2.00;;;18.70;58.40;;;;;;5054065;28;20457;-70
2022/05/13 09:18:00;;;;;;;12.80;3.70;;;18.80;60.10;;;;;;5057556;28;20430;-70
2022/05/13 09:20:28;;;;;;;8.00;2.97;;;18.90;59.50;;;;;;5057341;28;20472;-71
2022/05/13 09:22:58;;;;;;;8.03;2.90;;;19.00;59.80;;;;;;5057883;28;20473;-71
2022/05/13 09:25:28;;;;;;;5.50;2.37;;;19.00;59.30;;;;;;5057358;28;20536;-71
2022/05/13 09:27:59;;;;;;;5.10;2.60;;;19.20;59.50;;;;;;5057049;28;20449;-72
2022/05/13 09:30:34;;;;;;;5.07;2.33;;;19.40;59.00;;;;;;5056961;28;20559;-71
2022/05/13 09:33:19;;;;;;;5.80;2.40;;;19.50;59.20;;;;;;5056805;28;20560;-72
2022/05/13 09:35:46;;;;;;;6.87;2.23;;;19.70;58.00;;;;;;5057527;28;20436;-72
2022/05/13 09:38:17;;;;;;;6.80;2.37;;;19.80;56.40;;;;;;5056679;28;20872;-72
2022/05/13 09:41:01;;;;;;;6.33;2.20;;;19.90;56.70;;;;;;5056925;28;20441;-71
2022/05/13 09:43:37;;;;;;;8.60;2.53;;;19.90;57.60;;;;;;5056536;28;20495;-71
2022/05/13 09:46:08;;;;;;;6.20;1.80;;;20.00;55.60;;;;;;5056814;28;20460;-71
2022/05/13 09:48:37;;;;;;;3.87;1.43;;;20.20;55.30;;;;;;5057011;28;20442;-71
2022/05/13 09:51:25;;;;;;;5.50;1.40;;;20.30;52.40;;;;;;5056634;28;20563;-71
2022/05/13 09:54:12;;;;;;;6.77;2.27;;;20.30;51.10;;;;;;5056679;28;20452;-71
2022/05/13 09:56:42;;;;;;;8.77;2.73;;;20.20;52.70;;;;;;5056473;28;20437;-72
2022/05/13 09:59:17;;;;;;;5.03;1.60;;;20.20;52.50;;;;;;5056632;28;20456;-72
2022/05/13 10:01:44;;;;;;;6.27;1.57;;;20.00;51.90;;;;;;5056582;28;20476;-72
2022/05/13 10:04:13;;;;;;;6.83;1.40;;;20.10;53.60;;;;;;5056313;28;20437;-72
2022/05/13 10:06:42;;;;;;;6.10;1.30;;;20.20;51.30;;;;;;5056220;28;20446;-72
2022/05/13 10:15:12;;;;;;;4.33;1.40;;;20.40;48.90;;;;;;5056420;28;20465;-71
2022/05/13 10:17:47;;;;;;;3.97;1.73;;;20.50;49.50;;;;;;5056397;28;20456;-71
2022/05/13 10:20:24;;;;;;;2.70;1.37;;;20.80;47.90;;;;;;5056418;28;20439;-71
2022/05/13 10:22:57;;;;;;;3.60;1.40;;;21.00;48.20;;;;;;5056125;28;20855;-71
2022/05/13 10:25:28;;;;;;;6.13;1.60;;;21.30;48.00;;;;;;5056605;28;20437;-74
2022/05/13 10:27:58;;;;;;;2.97;1.80;;;21.10;44.90;;;;;;5055835;28;20441;-74
2022/05/13 10:30:34;;;;;;;4.83;1.30;;;20.80;45.80;;;;;;5055953;28;20470;-73
2022/05/13 10:33:05;;;;;;;5.33;1.60;;;20.60;47.80;;;;;;5056674;28;20465;-72
2022/05/13 10:35:39;;;;;;;4.20;1.87;;;20.70;49.00;;;;;;5055776;28;20445;-73
2022/05/13 10:38:12;;;;;;;2.10;1.17;;;21.10;46.50;;;;;;5056222;28;20433;-74
2022/05/13 10:40:43;;;;;;;3.73;1.30;;;21.30;45.70;;;;;;5055414;28;20921;-73
2022/05/13 10:43:16;;;;;;;6.50;1.30;;;21.20;45.70;;;;;;5055456;28;20441;-73
2022/05/13 10:45:44;;;;;;;6.83;1.23;;;20.80;45.90;;;;;;5055467;28;20433;-73
2022/05/13 10:48:22;;;;;;;4.93;1.40;;;20.60;47.90;;;;;;5055158;28;20810;-73
2022/05/13 10:50:59;;;;;;;4.30;1.00;;;20.70;47.40;;;;;;5055353;28;20481;-73
2022/05/13 10:53:34;;;;;;;4.30;1.73;;;21.10;46.10;;;;;;5055086;28;20932;-73
2022/05/13 10:56:13;;;;;;;5.33;1.47;;;21.30;45.20;;;;;;5055589;28;20455;-73
2022/05/13 10:58:51;;;;;;;3.53;1.63;;;21.30;46.00;;;;;;5055367;28;20429;-73
2022/05/13 11:01:32;;;;;;;6.13;1.47;;;21.20;45.90;;;;;;5054729;28;20464;-73
2022/05/13 11:04:01;;;;;;;4.93;2.40;;;20.90;45.80;;;;;;5055746;28;20430;-73
2022/05/13 11:06:46;;;;;;;4.60;1.33;;;20.80;47.20;;;;;;5055388;28;20445;-73
2022/05/13 11:09:22;;;;;;;4.40;1.50;;;20.70;48.00;;;;;;5054734;28;20473;-73
2022/05/13 11:11:53;;;;;;;3.97;0.90;;;21.00;46.70;;;;;;5055137;28;20523;-73
2022/05/13 11:14:32;;;;;;;2.63;1.17;;;21.40;46.20;;;;;;5055161;28;20441;-73
2022/05/13 11:17:07;;;;;;;4.50;1.40;;;21.80;43.90;;;;;;5055218;28;20452;-73
2022/05/13 11:19:38;;;;;;;2.37;1.13;;;22.20;42.00;;;;;;5055071;28;20430;-73
2022/05/13 11:22:17;;;;;;;3.10;1.50;;;22.40;41.80;;;;;;5054957;28;20474;-73
2022/05/13 11:28:00;;;;;;;4.03;1.60;;;23.30;40.50;;;;;;5054657;28;20541;-72
2022/05/13 11:30:38;;;;;;;4.40;1.47;;;23.00;42.30;;;;;;5054757;28;20917;-72
2022/05/13 11:33:18;;;;;;;3.63;1.50;;;22.90;41.60;;;;;;5055051;28;20448;-73
2022/05/13 11:35:54;;;;;;;6.07;1.40;;;23.20;42.20;;;;;;5054841;28;20499;-73
2022/05/13 11:38:32;;;;;;;4.43;1.50;;;23.30;39.40;;;;;;5054129;28;20483;-74
2022/05/13 11:41:04;;;;;;;7.63;1.70;;;23.20;41.50;;;;;;5054193;28;20476;-76
2022/05/13 11:43:42;;;;;;;5.47;1.93;;;23.20;41.20;;;;;;5054402;28;20483;-75
2022/05/13 11:46:39;;;;;;;3.37;1.30;;;23.50;42.40;;;;;;5054803;28;20445;-76
2022/05/13 11:49:16;;;;;;;4.23;1.07;;;23.50;41.90;;;;;;5054691;28;20444;-77
2022/05/13 11:51:43;;;;;;;3.40;1.20;;;23.50;41.20;;;;;;5054479;28;20489;-77
2022/05/13 11:54:19;;;;;;;4.97;1.60;;;23.60;41.40;;;;;;5054392;28;20500;-76
2022/05/13 11:56:48;;;;;;;6.10;1.70;;;23.60;39.90;;;;;;5054576;28;20469;-77
2022/05/13 11:59:54;;;;;;;2.43;1.30;;;23.60;41.20;;;;;;5054654;28;20953;-77
2022/05/13 12:02:34;;;;;;;4.00;1.23;;;23.50;41.20;;;;;;5054473;28;20489;-76
2022/05/13 12:05:25;;;;;;;3.17;1.27;;;23.70;40.40;;;;;;5055102;28;20426;-76
2022/05/13 12:07:55;;;;;;;2.50;1.23;;;24.50;39.60;;;;;;5054512;28;20430;-76
2022/05/13 12:10:27;;;;;;;3.23;1.50;;;25.00;37.70;;;;;;5054260;28;20492;-76
2022/05/13 12:13:07;;;;;;;3.63;1.10;;;25.70;37.50;;;;;;5054302;28;20477;-76
2022/05/13 12:15:47;;;;;;;2.40;1.30;;;25.60;35.50;;;;;;5054718;28;20409;-76
2022/05/13 12:18:30;;;;;;;7.03;1.40;;;25.70;35.60;;;;;;5054114;28;20437;-75
2022/05/13 12:21:09;;;;;;;5.10;1.80;;;26.30;34.80;;;;;;5054533;28;20433;-76
2022/05/13 12:23:54;;;;;;;5.30;1.57;;;26.60;34.50;;;;;;5054308;28;20944;-77
2022/05/13 12:26:24;;;;;;;5.60;1.50;;;26.80;34.20;;;;;;5053673;28;20917;-77
2022/05/13 12:29:17;;;;;;;3.00;1.60;;;27.10;32.60;;;;;;5053952;28;20442;-77
2022/05/13 12:32:05;;;;;;;5.43;1.80;;;26.70;33.20;;;;;;5053681;28;20489;-77
2022/05/13 12:37:35;;;;;;;2.97;1.27;;;26.50;34.20;;;;;;5053993;28;20417;-77
2022/05/13 12:40:12;;;;;;;2.50;1.40;;;27.20;33.50;;;;;;5053605;28;20433;-77
2022/05/13 12:42:50;;;;;;;4.77;1.60;;;27.90;31.70;;;;;;5053338;28;20484;-77
2022/05/13 12:45:22;;;;;;;4.00;1.53;;;28.80;33.30;;;;;;5053275;28;20496;-77
2022/05/13 12:48:13;;;;;;;2.80;1.20;;;29.30;28.80;;;;;;5053367;28;20437;-77
2022/05/13 12:50:43;;;;;;;3.27;1.37;;;29.10;28.70;;;;;;5053353;28;20541;-77
2022/05/13 12:53:36;;;;;;;3.80;1.73;;;29.30;29.30;;;;;;5053275;28;20453;-77
2022/05/13 12:56:11;;;;;;;1.90;1.40;;;29.50;28.80;;;;;;5046794;28;20461;-77
2022/05/13 12:58:42;;;;;;;4.47;1.40;;;30.20;28.80;;;;;;5053656;28;20433;-77
2022/05/13 13:01:12;;;;;;;5.50;1.87;;;30.40;27.70;;;;;;5053340;28;20465;-77
2022/05/13 13:03:43;;;;;;;3.27;1.37;;;30.80;26.70;;;;;;5053443;28;20480;-76
2022/05/13 13:06:16;;;;;;;5.27;1.67;;;31.20;26.90;;;;;;5053480;28;20437;-77
2022/05/13 13:08:45;;;;;;;6.70;1.50;;;31.20;26.30;;;;;;5053451;28;20446;-76
2022/05/13 13:11:23;;;;;;;2.93;1.50;;;31.00;27.40;;;;;;5053302;28;20493;-77
2022/05/13 13:13:55;;;;;;;4.83;1.60;;;30.70;27.20;;;;;;5053402;28;20541;-76
2022/05/13 13:16:27;;;;;;;5.10;1.43;;;30.70;27.90;;;;;;5053461;28;20525;-77
2022/05/13 13:19:12;;;;;;;6.43;1.73;;;30.50;27.00;;;;;;5052938;28;20912;-77
2022/05/13 13:21:39;;;;;;;2.60;1.30;;;30.50;27.50;;;;;;5051911;28;20485;-77
2022/05/13 13:24:16;;;;;;;4.73;1.67;;;30.80;26.60;;;;;;5053379;28;20422;-78
2022/05/13 13:26:47;;;;;;;2.80;1.20;;;31.00;26.20;;;;;;5053297;28;20433;-78
2022/05/13 13:29:18;;;;;;;3.50;1.40;;;30.50;26.00;;;;;;5052888;28;20430;-78
2022/05/13 13:31:48;;;;;;;3.13;1.30;;;30.50;26.70;;;;;;5053029;28;20492;-76
2022/05/13 13:34:31;;;;;;;4.40;1.17;;;30.40;27.10;;;;;;5052655;28;21006;-77
2022/05/13 13:37:00;;;;;;;4.13;1.37;;;30.80;26.70;;;;;;5052759;28;20913;-77